Time;durP1;ratioP1;P1;durP2;ratioP2;P2;SDS_P1;SDS_P2;PMS_P1;PMS_P2;Temp;Humidity;BMP_temperature;BMP_pressure;BME280_temperature;BME280_humidity;BME280_pressure;Samples;Min_cycle;Max_cycle;Signal;HPM_P1;HPM_P2
2023/12/09 00:01:25;;;;;;;38.58;17.05;;;6.80;99.90;;;;;;5103326;27;20572;-67
2023/12/09 00:03:51;;;;;;;34.88;16.73;;;6.80;99.90;;;;;;5102987;27;20058;-67
2023/12/09 00:06:18;;;;;;;35.70;17.13;;;6.80;99.90;;;;;;5122152;27;20047;-68
2023/12/09 00:08:47;;;;;;;33.80;16.98;;;6.90;99.90;;;;;;5103710;28;20046;-67
2023/12/09 00:11:13;;;;;;;31.85;16.70;;;6.80;99.90;;;;;;5121434;27;20051;-67
2023/12/09 00:13:38;;;;;;;35.30;16.20;;;6.90;99.90;;;;;;5121706;27;20050;-67
2023/12/09 00:16:05;;;;;;;32.40;17.02;;;6.90;99.90;;;;;;5103191;28;20097;-66
2023/12/09 00:18:30;;;;;;;39.15;17.48;;;6.90;99.90;;;;;;5123048;27;20116;-67
2023/12/09 00:20:56;;;;;;;41.55;17.35;;;6.90;99.90;;;;;;5101826;28;20042;-67
2023/12/09 00:23:22;;;;;;;36.33;15.80;;;6.90;99.90;;;;;;5120577;27;20039;-67
2023/12/09 00:25:48;;;;;;;36.88;16.63;;;6.90;99.90;;;;;;5122739;28;20536;-67
2023/12/09 00:28:14;;;;;;;34.95;16.67;;;6.90;99.90;;;;;;5122134;28;20046;-66
2023/12/09 00:30:40;;;;;;;33.03;15.45;;;6.90;99.90;;;;;;5122677;28;20196;-66
2023/12/09 00:33:06;;;;;;;27.90;14.90;;;6.90;99.90;;;;;;5102903;28;20383;-66
2023/12/09 00:35:31;;;;;;;23.85;14.57;;;6.90;99.90;;;;;;5103317;28;20039;-67
2023/12/09 00:37:57;;;;;;;37.60;18.10;;;6.90;99.90;;;;;;5120856;27;20203;-67
2023/12/09 00:40:23;;;;;;;35.70;16.27;;;6.90;99.90;;;;;;5120644;27;20047;-67
2023/12/09 00:42:48;;;;;;;38.28;15.43;;;6.90;99.90;;;;;;5121707;27;20050;-67
2023/12/09 00:45:15;;;;;;;35.45;16.05;;;6.90;99.90;;;;;;5122376;27;20039;-66
2023/12/09 00:47:40;;;;;;;34.17;17.00;;;6.90;99.90;;;;;;5122599;28;20049;-67
2023/12/09 00:50:07;;;;;;;38.78;16.73;;;7.00;99.90;;;;;;5122350;27;21067;-66
2023/12/09 00:52:33;;;;;;;37.70;14.80;;;7.00;99.90;;;;;;5122845;27;20043;-66
2023/12/09 00:55:00;;;;;;;34.88;16.05;;;6.90;99.90;;;;;;5121042;28;20601;-66
2023/12/09 00:57:26;;;;;;;39.47;15.82;;;6.90;99.90;;;;;;5122190;28;20055;-67
2023/12/09 00:59:52;;;;;;;22.42;12.95;;;7.00;99.90;;;;;;5122172;27;20043;-67
2023/12/09 01:02:18;;;;;;;39.97;17.20;;;7.00;99.90;;;;;;5122900;28;20481;-67
2023/12/09 01:04:44;;;;;;;39.65;15.15;;;7.00;99.90;;;;;;5123288;28;20031;-66
2023/12/09 01:07:09;;;;;;;31.70;16.75;;;6.90;99.90;;;;;;5121983;28;20043;-67
2023/12/09 01:09:35;;;;;;;31.35;16.67;;;7.00;99.90;;;;;;5123780;27;20177;-66
2023/12/09 01:12:01;;;;;;;31.45;14.13;;;7.00;99.90;;;;;;5101932;28;20055;-66
2023/12/09 01:14:27;;;;;;;28.15;15.55;;;7.00;99.90;;;;;;5121394;28;20043;-66
2023/12/09 01:16:53;;;;;;;26.15;15.30;;;7.00;99.90;;;;;;5102730;28;20050;-66
2023/12/09 01:19:19;;;;;;;38.30;15.70;;;7.00;99.90;;;;;;5122171;27;20664;-66
2023/12/09 01:21:44;;;;;;;30.60;17.13;;;7.00;99.90;;;;;;5122017;28;20038;-66
2023/12/09 01:24:10;;;;;;;28.02;15.80;;;7.00;99.90;;;;;;5121594;28;20023;-66
2023/12/09 01:26:36;;;;;;;37.83;16.23;;;7.00;99.90;;;;;;5123644;27;20073;-66
2023/12/09 01:29:03;;;;;;;29.58;15.10;;;7.00;99.90;;;;;;5125138;27;20058;-66
2023/12/09 01:31:29;;;;;;;31.42;15.43;;;7.00;99.90;;;;;;5125298;27;20442;-66
2023/12/09 01:33:55;;;;;;;29.92;15.23;;;7.00;99.90;;;;;;5106818;27;20118;-66
2023/12/09 01:36:27;;;;;;;24.55;14.52;;;7.00;99.90;;;;;;5125184;27;20466;-67
2023/12/09 01:38:53;;;;;;;36.45;15.40;;;7.00;99.90;;;;;;5124487;27;20214;-66
2023/12/09 01:41:19;;;;;;;38.20;16.73;;;7.00;99.90;;;;;;5124860;27;20031;-67
2023/12/09 01:43:48;;;;;;;37.85;15.68;;;7.00;99.90;;;;;;5125126;27;20475;-67
2023/12/09 01:46:16;;;;;;;31.23;13.60;;;7.00;99.90;;;;;;5105577;27;20051;-67
2023/12/09 01:48:41;;;;;;;26.13;13.52;;;7.00;99.90;;;;;;5125240;27;20079;-66
2023/12/09 01:51:08;;;;;;;23.90;15.18;;;7.00;99.90;;;;;;5125792;27;20095;-66
2023/12/09 01:53:35;;;;;;;28.63;14.45;;;7.00;99.90;;;;;;5124702;27;20302;-66
2023/12/09 01:56:05;;;;;;;26.77;14.50;;;6.90;99.90;;;;;;5124707;27;20584;-66
2023/12/09 01:58:35;;;;;;;33.45;14.57;;;6.90;99.90;;;;;;5124523;27;20207;-66
2023/12/09 02:01:03;;;;;;;27.38;13.15;;;6.90;99.90;;;;;;5123320;27;20343;-65
2023/12/09 02:03:31;;;;;;;32.95;13.82;;;6.90;99.90;;;;;;5125133;27;20045;-66
2023/12/09 02:05:57;;;;;;;24.65;13.13;;;7.00;99.90;;;;;;5105576;27;20055;-66
2023/12/09 02:08:23;;;;;;;25.63;14.23;;;7.00;99.90;;;;;;5105857;27;20049;-66
2023/12/09 02:11:08;;;;;;;28.35;12.80;;;7.00;99.90;;;;;;5123469;27;20047;-67
2023/12/09 02:13:46;;;;;;;30.58;12.75;;;6.90;99.90;;;;;;5105342;27;20058;-66
2023/12/09 02:16:18;;;;;;;26.45;13.10;;;6.90;99.90;;;;;;5124117;27;20811;-67
2023/12/09 02:18:45;;;;;;;26.42;11.77;;;7.00;99.90;;;;;;5125210;27;20096;-66
2023/12/09 02:21:11;;;;;;;30.05;13.88;;;7.00;99.90;;;;;;5124679;27;20392;-66
2023/12/09 02:23:37;;;;;;;33.58;14.13;;;6.90;99.90;;;;;;5124923;27;20383;-66
2023/12/09 02:26:12;;;;;;;32.70;14.02;;;7.00;99.90;;;;;;5123460;27;20039;-67
2023/12/09 02:28:43;;;;;;;21.95;11.20;;;7.00;99.90;;;;;;5123881;27;20039;-66
2023/12/09 02:31:13;;;;;;;35.58;14.18;;;7.00;99.90;;;;;;5104778;27;20043;-66
2023/12/09 02:33:43;;;;;;;20.70;13.05;;;7.00;99.90;;;;;;5123835;27;20125;-66
2023/12/09 02:36:17;;;;;;;26.85;12.85;;;7.00;99.90;;;;;;5124393;27;20054;-66
2023/12/09 02:38:43;;;;;;;32.80;13.65;;;7.00;99.90;;;;;;5123335;27;20039;-66
2023/12/09 02:41:11;;;;;;;23.75;13.30;;;7.00;99.90;;;;;;5122315;27;20035;-66
2023/12/09 02:43:38;;;;;;;24.10;11.32;;;7.00;99.90;;;;;;5123930;27;20534;-66
2023/12/09 02:46:04;;;;;;;29.23;13.32;;;7.00;99.90;;;;;;5123126;27;20361;-65
2023/12/09 02:48:29;;;;;;;28.38;13.32;;;7.00;99.90;;;;;;5104381;27;20043;-67
2023/12/09 02:50:57;;;;;;;29.10;11.30;;;7.00;99.90;;;;;;5105057;27;20289;-67
2023/12/09 02:53:23;;;;;;;32.17;14.38;;;7.00;99.90;;;;;;5124126;27;20055;-66
2023/12/09 02:55:48;;;;;;;31.55;12.27;;;7.00;99.90;;;;;;5122809;27;20109;-68
2023/12/09 02:58:15;;;;;;;27.65;11.43;;;7.00;99.90;;;;;;5123720;27;20048;-67
2023/12/09 03:00:42;;;;;;;32.42;12.43;;;7.00;99.90;;;;;;5123624;27;20035;-66
2023/12/09 03:03:08;;;;;;;35.55;12.85;;;7.00;99.90;;;;;;5104228;27;20039;-66
2023/12/09 03:05:33;;;;;;;22.60;12.10;;;7.00;99.90;;;;;;5104472;27;20031;-67
2023/12/09 03:07:59;;;;;;;23.23;12.80;;;7.00;99.90;;;;;;5123983;27;20046;-66
2023/12/09 03:10:25;;;;;;;28.33;12.80;;;7.00;99.90;;;;;;5121988;27;20114;-66
2023/12/09 03:12:52;;;;;;;27.90;14.40;;;7.00;99.90;;;;;;5123552;27;20074;-65
2023/12/09 03:15:17;;;;;;;33.50;12.75;;;7.00;99.90;;;;;;5122617;27;20076;-66
2023/12/09 03:17:43;;;;;;;29.73;13.07;;;7.00;99.90;;;;;;5104120;27;20116;-65
2023/12/09 03:20:09;;;;;;;30.55;12.43;;;7.00;99.90;;;;;;5122980;27;20166;-66
2023/12/09 03:22:36;;;;;;;21.95;12.07;;;7.00;99.90;;;;;;5123305;27;20114;-67
2023/12/09 03:25:01;;;;;;;24.45;12.23;;;7.00;99.90;;;;;;5122655;27;20125;-66
2023/12/09 03:27:27;;;;;;;23.80;12.23;;;7.00;99.90;;;;;;5103769;27;20490;-66
2023/12/09 03:29:53;;;;;;;27.67;13.18;;;7.00;99.90;;;;;;5122601;27;20047;-66
2023/12/09 03:32:19;;;;;;;27.13;13.65;;;7.00;99.90;;;;;;5086850;27;20046;-66
2023/12/09 03:34:44;;;;;;;27.33;12.75;;;7.00;99.90;;;;;;5123486;27;20054;-67
2023/12/09 03:37:10;;;;;;;36.33;14.93;;;7.00;99.90;;;;;;5122896;27;20096;-65
2023/12/09 03:39:36;;;;;;;31.58;14.18;;;7.00;99.90;;;;;;5122456;27;20109;-66
2023/12/09 03:42:03;;;;;;;22.60;12.85;;;7.00;99.90;;;;;;5120591;27;20118;-65
2023/12/09 03:44:29;;;;;;;28.10;14.18;;;7.00;99.90;;;;;;5122497;27;20474;-66
2023/12/09 03:46:55;;;;;;;21.58;11.27;;;7.00;99.90;;;;;;5122576;27;20113;-66
2023/12/09 03:49:21;;;;;;;29.67;13.55;;;7.00;99.90;;;;;;5123037;27;20039;-67
2023/12/09 03:51:48;;;;;;;25.85;12.85;;;7.10;99.90;;;;;;5122868;27;20078;-67
2023/12/09 03:54:14;;;;;;;22.80;12.10;;;7.00;99.90;;;;;;5123449;27;20104;-67
2023/12/09 03:56:39;;;;;;;22.63;11.85;;;7.00;99.90;;;;;;5121609;27;20042;-67
2023/12/09 03:59:06;;;;;;;29.95;13.13;;;7.00;99.90;;;;;;5123144;27;20055;-67
2023/12/09 04:01:31;;;;;;;20.52;12.05;;;7.00;99.90;;;;;;5122516;27;20031;-67
2023/12/09 04:03:57;;;;;;;26.20;13.02;;;7.00;99.90;;;;;;5123947;27;20034;-67
2023/12/09 04:06:23;;;;;;;30.40;14.43;;;7.00;99.90;;;;;;5104119;27;20130;-66
2023/12/09 04:08:49;;;;;;;22.77;12.95;;;7.00;99.90;;;;;;5124822;27;20075;-67
2023/12/09 04:11:15;;;;;;;21.67;12.45;;;7.00;99.90;;;;;;5124050;27;20426;-66
2023/12/09 04:13:41;;;;;;;33.17;14.73;;;7.00;99.90;;;;;;5124383;27;20478;-66
2023/12/09 04:16:07;;;;;;;24.60;13.35;;;7.00;99.90;;;;;;5122719;27;20126;-66
2023/12/09 04:18:33;;;;;;;28.48;13.45;;;7.00;99.90;;;;;;5123042;27;20451;-66
2023/12/09 04:20:58;;;;;;;25.83;13.70;;;7.00;99.90;;;;;;5122250;27;20085;-66
2023/12/09 04:23:24;;;;;;;25.50;13.35;;;7.00;99.90;;;;;;5122855;27;20130;-66
2023/12/09 04:25:50;;;;;;;26.20;14.27;;;7.00;99.90;;;;;;5121947;27;20199;-66
2023/12/09 04:28:16;;;;;;;35.50;15.60;;;7.00;99.90;;;;;;5122726;28;20048;-67
2023/12/09 04:30:42;;;;;;;28.42;14.00;;;7.00;99.90;;;;;;5121991;28;20050;-68
2023/12/09 04:33:08;;;;;;;31.75;13.75;;;7.00;99.90;;;;;;5122660;27;20046;-66
2023/12/09 04:35:34;;;;;;;36.10;14.35;;;7.00;99.90;;;;;;5083871;28;20051;-66
2023/12/09 04:37:59;;;;;;;31.25;14.82;;;7.00;99.90;;;;;;5103177;28;20123;-67
2023/12/09 04:40:25;;;;;;;22.40;12.25;;;7.00;99.90;;;;;;5119396;28;20047;-67
2023/12/09 04:42:51;;;;;;;25.95;14.05;;;7.00;99.90;;;;;;5121488;28;20047;-66
2023/12/09 04:45:16;;;;;;;26.85;12.40;;;7.00;99.90;;;;;;5120606;28;20935;-66
2023/12/09 04:47:42;;;;;;;32.67;14.20;;;7.00;99.90;;;;;;5122121;28;20041;-66
2023/12/09 04:50:08;;;;;;;23.52;13.43;;;7.00;99.90;;;;;;5121369;28;20517;-66
2023/12/09 04:52:37;;;;;;;21.52;12.27;;;7.00;99.90;;;;;;5122576;27;20963;-66
2023/12/09 04:55:03;;;;;;;29.88;14.07;;;7.00;99.90;;;;;;5121441;27;20282;-67
2023/12/09 04:57:32;;;;;;;27.52;13.63;;;7.00;99.90;;;;;;5120998;28;20058;-67
2023/12/09 04:59:58;;;;;;;23.73;14.90;;;7.00;99.90;;;;;;5122261;27;20129;-67
2023/12/09 05:02:24;;;;;;;29.83;12.80;;;7.00;99.90;;;;;;5126222;27;20137;-67
2023/12/09 05:04:50;;;;;;;18.50;11.82;;;7.00;99.90;;;;;;5126122;27;20095;-67
2023/12/09 05:07:17;;;;;;;20.42;12.05;;;7.00;99.90;;;;;;5125860;27;20130;-67
2023/12/09 05:09:43;;;;;;;26.17;13.73;;;7.00;99.90;;;;;;5124933;27;20073;-67
2023/12/09 05:12:09;;;;;;;28.35;14.88;;;7.00;99.90;;;;;;5125011;27;20057;-67
2023/12/09 05:14:35;;;;;;;23.38;14.25;;;7.10;99.90;;;;;;5086016;27;20055;-67
2023/12/09 05:17:01;;;;;;;22.85;13.20;;;7.10;99.90;;;;;;5123051;27;20135;-66
2023/12/09 05:19:26;;;;;;;27.50;12.55;;;7.10;99.90;;;;;;5100431;27;20122;-66
2023/12/09 05:21:52;;;;;;;20.38;12.30;;;7.00;99.90;;;;;;5084498;27;20039;-67
2023/12/09 05:24:18;;;;;;;25.33;15.63;;;7.00;99.90;;;;;;5122370;27;20036;-67
2023/12/09 05:26:44;;;;;;;24.42;11.70;;;7.00;99.90;;;;;;5118517;27;20067;-67
2023/12/09 05:29:09;;;;;;;36.42;12.63;;;7.00;99.90;;;;;;5121770;27;20047;-67
2023/12/09 05:31:35;;;;;;;31.33;15.55;;;7.00;99.90;;;;;;5122630;27;20100;-67
2023/12/09 05:34:01;;;;;;;18.60;12.10;;;7.00;99.90;;;;;;5121410;27;20083;-67
2023/12/09 05:36:28;;;;;;;25.80;13.25;;;7.00;99.90;;;;;;5124095;27;20175;-67
2023/12/09 05:38:53;;;;;;;25.88;12.57;;;7.00;99.90;;;;;;5124368;27;20113;-67
2023/12/09 05:41:19;;;;;;;24.92;13.25;;;7.00;99.90;;;;;;5104440;27;20446;-67
2023/12/09 05:43:45;;;;;;;25.63;12.85;;;7.00;99.90;;;;;;5124592;27;20043;-68
2023/12/09 05:46:20;;;;;;;25.45;10.98;;;7.00;99.90;;;;;;5125328;27;20045;-67
2023/12/09 05:48:46;;;;;;;27.85;13.73;;;7.00;99.90;;;;;;5105216;27;20074;-67
2023/12/09 05:51:12;;;;;;;34.08;14.00;;;7.00;99.90;;;;;;5105558;27;20123;-67
2023/12/09 05:53:39;;;;;;;25.67;14.25;;;7.00;99.90;;;;;;5125381;27;20038;-67
2023/12/09 05:56:07;;;;;;;28.05;12.18;;;7.00;99.90;;;;;;5125167;27;20074;-67
2023/12/09 05:58:33;;;;;;;25.17;12.60;;;7.00;99.90;;;;;;5105334;27;20051;-67
2023/12/09 06:01:00;;;;;;;24.52;12.73;;;7.00;99.90;;;;;;5125648;27;20447;-67
2023/12/09 06:03:26;;;;;;;27.83;13.38;;;7.00;99.90;;;;;;5124796;27;20579;-67
2023/12/09 06:05:51;;;;;;;26.50;12.07;;;7.00;99.90;;;;;;5123894;27;20043;-67
2023/12/09 06:08:17;;;;;;;18.75;12.45;;;7.00;99.90;;;;;;5123666;27;20027;-67
2023/12/09 06:10:43;;;;;;;18.27;11.20;;;7.00;99.90;;;;;;5104721;27;20687;-67
2023/12/09 06:13:08;;;;;;;25.48;12.52;;;7.00;99.90;;;;;;5103609;27;20134;-64
2023/12/09 06:15:34;;;;;;;26.27;13.13;;;7.00;99.90;;;;;;5121406;27;20146;-67
2023/12/09 06:18:00;;;;;;;22.58;12.20;;;7.00;99.90;;;;;;5103961;27;20327;-66
2023/12/09 06:20:26;;;;;;;21.35;12.82;;;7.00;99.90;;;;;;5100946;27;20064;-66
2023/12/09 06:22:52;;;;;;;20.33;13.18;;;7.00;99.90;;;;;;5101950;27;20107;-67
2023/12/09 06:25:17;;;;;;;26.02;12.38;;;7.00;99.90;;;;;;5102406;27;20035;-66
2023/12/09 06:27:43;;;;;;;29.20;11.98;;;6.90;99.90;;;;;;5123824;27;20423;-67
2023/12/09 06:30:11;;;;;;;27.80;14.18;;;7.00;99.90;;;;;;5087275;27;20054;-66
2023/12/09 06:32:37;;;;;;;31.92;13.40;;;6.90;99.90;;;;;;5123506;27;20103;-67
2023/12/09 06:35:03;;;;;;;23.70;13.00;;;7.00;99.90;;;;;;5123955;27;20448;-67
2023/12/09 06:37:28;;;;;;;27.50;12.98;;;6.90;99.90;;;;;;5123724;27;20085;-67
2023/12/09 06:39:54;;;;;;;22.30;13.65;;;6.90;99.90;;;;;;5123480;27;20070;-67
2023/12/09 06:42:20;;;;;;;23.95;12.07;;;6.90;99.90;;;;;;5123584;27;20063;-68
2023/12/09 06:44:46;;;;;;;25.27;11.65;;;6.90;99.90;;;;;;5123685;27;20053;-67
2023/12/09 06:47:12;;;;;;;19.45;11.25;;;6.90;99.90;;;;;;5104501;27;20043;-66
2023/12/09 06:49:37;;;;;;;20.10;11.00;;;6.90;99.90;;;;;;5123053;27;20082;-67
2023/12/09 06:52:03;;;;;;;24.35;13.77;;;6.90;99.90;;;;;;5104912;27;20078;-66
2023/12/09 06:54:29;;;;;;;17.83;12.20;;;6.90;99.90;;;;;;5124278;27;20039;-67
2023/12/09 06:56:56;;;;;;;21.83;11.98;;;6.90;99.90;;;;;;5123892;27;20055;-67
2023/12/09 06:59:28;;;;;;;30.98;13.35;;;6.90;99.90;;;;;;5123929;27;20047;-67
2023/12/09 07:01:57;;;;;;;24.42;12.32;;;6.90;99.90;;;;;;5123995;27;20600;-66
2023/12/09 07:04:23;;;;;;;27.13;13.05;;;7.00;99.90;;;;;;5123303;27;20487;-66
2023/12/09 07:06:52;;;;;;;27.40;14.73;;;6.90;99.90;;;;;;5087543;27;20503;-66
2023/12/09 07:09:17;;;;;;;22.88;12.35;;;6.90;99.90;;;;;;5123351;27;20047;-66
2023/12/09 07:11:44;;;;;;;22.25;11.85;;;6.90;99.90;;;;;;5099520;27;20285;-67
2023/12/09 07:14:10;;;;;;;24.27;11.77;;;6.90;99.90;;;;;;5115592;27;20035;-67
2023/12/09 07:16:37;;;;;;;25.92;11.70;;;6.90;99.90;;;;;;5123046;27;20478;-66
2023/12/09 07:19:03;;;;;;;24.50;11.15;;;6.90;99.90;;;;;;5122764;27;20134;-66
2023/12/09 07:21:28;;;;;;;18.83;10.40;;;6.90;99.90;;;;;;5123647;27;20534;-66
2023/12/09 07:23:55;;;;;;;24.52;11.73;;;6.90;99.90;;;;;;5054383;27;20061;-67
2023/12/09 07:26:21;;;;;;;27.20;12.02;;;6.90;99.90;;;;;;5123608;27;20037;-67
2023/12/09 07:28:47;;;;;;;23.40;12.68;;;7.00;99.90;;;;;;5120530;27;20126;-67
2023/12/09 07:31:14;;;;;;;23.50;11.90;;;7.00;99.90;;;;;;5102789;27;20047;-67
2023/12/09 07:33:40;;;;;;;15.93;9.40;;;7.00;99.90;;;;;;5121726;27;20047;-67
2023/12/09 07:36:06;;;;;;;26.52;12.40;;;6.90;99.90;;;;;;5102969;27;20049;-67
2023/12/09 07:38:31;;;;;;;16.30;10.02;;;7.00;99.90;;;;;;5103149;27;20406;-67
2023/12/09 07:40:58;;;;;;;24.58;11.88;;;7.00;99.90;;;;;;5120838;27;20049;-67
2023/12/09 07:43:24;;;;;;;28.08;11.30;;;7.00;99.90;;;;;;5121488;27;20035;-67
2023/12/09 07:45:50;;;;;;;28.20;10.60;;;7.00;99.90;;;;;;5120763;27;20114;-67
2023/12/09 07:48:16;;;;;;;20.45;11.20;;;7.00;99.90;;;;;;5121604;27;20038;-67
2023/12/09 07:50:41;;;;;;;24.30;11.00;;;7.00;99.90;;;;;;5123043;27;20123;-66
2023/12/09 07:53:08;;;;;;;25.45;11.82;;;7.00;99.90;;;;;;5120224;27;20575;-67
2023/12/09 07:55:34;;;;;;;26.98;11.55;;;7.00;99.90;;;;;;5115296;27;20129;-67
2023/12/09 07:58:00;;;;;;;24.63;11.38;;;7.00;99.90;;;;;;5098357;28;20140;-67
2023/12/09 08:00:27;;;;;;;19.15;9.85;;;7.00;99.90;;;;;;5100685;28;20103;-67
2023/12/09 08:02:55;;;;;;;29.05;12.23;;;7.00;99.90;;;;;;5101258;28;20106;-67
2023/12/09 08:05:25;;;;;;;21.08;10.98;;;7.00;99.90;;;;;;5100998;28;20055;-67
2023/12/09 08:07:51;;;;;;;21.15;9.40;;;7.00;99.90;;;;;;5101043;28;20036;-67
2023/12/09 08:10:17;;;;;;;17.45;10.75;;;7.00;99.90;;;;;;5098265;28;20039;-67
2023/12/09 08:12:43;;;;;;;23.15;9.90;;;7.00;99.90;;;;;;5100377;28;20054;-67
2023/12/09 08:15:10;;;;;;;20.33;10.20;;;7.00;99.90;;;;;;5100372;28;20043;-67
2023/12/09 08:17:36;;;;;;;17.55;10.38;;;7.00;99.90;;;;;;5098645;28;20055;-67
2023/12/09 08:20:06;;;;;;;26.90;10.38;;;7.00;99.90;;;;;;5099028;28;20047;-66
2023/12/09 08:22:32;;;;;;;21.42;10.02;;;7.00;99.90;;;;;;5098067;27;20047;-66
2023/12/09 08:24:58;;;;;;;19.35;9.40;;;7.00;99.90;;;;;;5099227;28;20031;-66
2023/12/09 08:27:25;;;;;;;19.25;9.10;;;7.00;99.90;;;;;;5100607;28;20099;-66
2023/12/09 08:29:50;;;;;;;23.75;9.15;;;7.00;99.90;;;;;;5099726;28;20044;-66
2023/12/09 08:32:16;;;;;;;18.02;9.35;;;7.00;99.90;;;;;;5100770;28;20044;-66
2023/12/09 08:34:42;;;;;;;21.52;9.98;;;7.00;99.90;;;;;;5100767;28;20047;-66
2023/12/09 08:37:07;;;;;;;18.45;9.73;;;7.00;99.90;;;;;;5103252;28;20043;-66
2023/12/09 08:39:37;;;;;;;23.42;9.85;;;7.00;99.90;;;;;;5104405;27;20060;-66
2023/12/09 08:42:02;;;;;;;17.73;8.30;;;7.00;99.90;;;;;;5104817;28;20044;-67
2023/12/09 08:44:30;;;;;;;27.25;10.60;;;7.00;99.90;;;;;;5088758;28;20036;-67
2023/12/09 08:46:57;;;;;;;27.50;9.63;;;7.00;99.90;;;;;;5104723;27;20131;-66
2023/12/09 08:49:23;;;;;;;15.57;7.38;;;7.00;99.90;;;;;;5104973;28;20518;-66
2023/12/09 08:51:51;;;;;;;19.67;7.30;;;7.00;99.90;;;;;;5104699;28;20092;-66
2023/12/09 08:54:17;;;;;;;16.70;7.40;;;7.00;99.90;;;;;;5096993;28;20047;-67
2023/12/09 08:56:43;;;;;;;18.15;8.23;;;7.00;99.90;;;;;;5101472;27;20046;-67
2023/12/09 08:59:10;;;;;;;23.15;8.77;;;7.10;99.90;;;;;;5125238;27;20043;-66
2023/12/09 09:01:36;;;;;;;18.45;7.32;;;7.10;99.90;;;;;;5125388;27;20043;-66
2023/12/09 09:04:05;;;;;;;18.05;8.05;;;7.00;99.90;;;;;;5125136;27;20031;-68
2023/12/09 09:06:31;;;;;;;17.10;7.40;;;7.10;99.90;;;;;;5104948;27;20046;-66
2023/12/09 09:08:57;;;;;;;16.50;8.95;;;7.10;99.90;;;;;;5124636;27;20563;-66
2023/12/09 09:11:23;;;;;;;10.75;7.53;;;7.10;99.90;;;;;;5124723;27;20035;-66
2023/12/09 09:13:49;;;;;;;18.70;7.80;;;7.10;99.90;;;;;;5124862;27;20050;-66
2023/12/09 09:16:15;;;;;;;16.75;7.35;;;7.10;99.90;;;;;;5124013;27;20171;-66
2023/12/09 09:18:42;;;;;;;23.15;7.93;;;7.10;99.90;;;;;;5089581;27;20183;-66
2023/12/09 09:21:09;;;;;;;14.60;7.28;;;7.10;99.90;;;;;;5052405;27;20125;-66
2023/12/09 09:23:35;;;;;;;21.10;7.32;;;7.10;99.90;;;;;;5121286;27;20130;-67
2023/12/09 09:26:01;;;;;;;15.65;7.90;;;7.20;99.90;;;;;;5104024;27;20127;-67
2023/12/09 09:28:27;;;;;;;15.95;7.43;;;7.20;99.90;;;;;;5124454;27;20127;-67
2023/12/09 09:30:53;;;;;;;17.55;7.35;;;7.20;99.90;;;;;;5124015;27;20672;-67
2023/12/09 09:33:18;;;;;;;24.33;7.88;;;7.20;99.90;;;;;;5124034;27;20035;-67
2023/12/09 09:35:46;;;;;;;23.10;8.13;;;7.20;99.90;;;;;;5104486;27;20035;-66
2023/12/09 09:38:11;;;;;;;13.95;6.47;;;7.20;99.90;;;;;;5051075;27;20134;-66
2023/12/09 09:40:37;;;;;;;13.75;5.63;;;7.20;99.90;;;;;;5121780;27;20432;-67
2023/12/09 09:43:18;;;;;;;15.88;6.95;;;7.20;99.90;;;;;;5124514;27;20090;-67
2023/12/09 09:45:46;;;;;;;15.25;7.00;;;7.20;99.90;;;;;;5123747;27;20910;-66
2023/12/09 09:48:16;;;;;;;22.73;6.82;;;7.20;99.90;;;;;;5123708;27;20255;-66
2023/12/09 09:50:45;;;;;;;12.95;6.15;;;7.20;99.90;;;;;;5124291;27;20747;-66
2023/12/09 09:53:19;;;;;;;14.75;6.70;;;7.20;99.90;;;;;;5124109;27;20095;-66
2023/12/09 09:55:46;;;;;;;15.70;6.43;;;7.20;99.90;;;;;;5123720;27;20043;-66
2023/12/09 09:58:12;;;;;;;20.73;6.53;;;7.20;99.90;;;;;;5102198;28;20101;-66
2023/12/09 10:00:38;;;;;;;22.38;6.85;;;7.20;99.90;;;;;;5103812;28;20132;-66
2023/12/09 10:03:04;;;;;;;9.57;4.97;;;7.30;99.90;;;;;;5104164;28;20043;-66
2023/12/09 10:05:30;;;;;;;17.83;7.22;;;7.30;99.90;;;;;;5102546;28;20062;-67
2023/12/09 10:07:56;;;;;;;20.88;5.70;;;7.30;99.90;;;;;;5048948;28;20478;-67
2023/12/09 10:10:22;;;;;;;14.45;6.45;;;7.30;99.90;;;;;;5100724;28;20528;-67
2023/12/09 10:12:48;;;;;;;11.52;5.93;;;7.30;99.90;;;;;;5102665;28;20035;-67
2023/12/09 10:15:14;;;;;;;13.75;5.93;;;7.30;99.90;;;;;;5103472;28;20042;-67
2023/12/09 10:17:40;;;;;;;14.23;6.25;;;7.30;99.90;;;;;;5102128;28;20043;-67
2023/12/09 10:20:08;;;;;;;17.80;6.80;;;7.30;99.90;;;;;;5103956;28;20038;-67
2023/12/09 10:22:35;;;;;;;11.38;6.70;;;7.30;99.90;;;;;;5102654;28;20035;-67
2023/12/09 10:25:00;;;;;;;12.43;5.88;;;7.30;99.90;;;;;;5102379;28;20100;-68
2023/12/09 10:27:27;;;;;;;13.27;5.85;;;7.30;99.90;;;;;;5101320;28;20104;-66
2023/12/09 10:29:56;;;;;;;11.15;5.80;;;7.30;99.90;;;;;;5103662;28;20135;-66
2023/12/09 10:32:22;;;;;;;16.65;5.63;;;7.40;99.90;;;;;;5097814;28;20055;-67
2023/12/09 10:34:49;;;;;;;15.38;5.38;;;7.40;99.90;;;;;;5102205;28;20666;-67
2023/12/09 10:37:16;;;;;;;10.05;5.13;;;7.40;99.90;;;;;;5102913;28;20048;-66
2023/12/09 10:39:46;;;;;;;7.53;5.03;;;7.40;99.90;;;;;;5100171;28;20035;-66
2023/12/09 10:42:13;;;;;;;15.75;4.95;;;7.40;99.90;;;;;;5100664;27;20518;-66
2023/12/09 10:44:39;;;;;;;9.90;5.18;;;7.40;99.90;;;;;;5102876;28;20092;-66
2023/12/09 10:47:05;;;;;;;11.32;5.13;;;7.40;99.90;;;;;;5102691;28;20172;-66
2023/12/09 10:49:31;;;;;;;11.65;4.72;;;7.40;99.90;;;;;;5101348;28;20047;-67
2023/12/09 10:51:57;;;;;;;11.95;4.95;;;7.40;99.90;;;;;;5100666;28;20067;-67
2023/12/09 10:54:26;;;;;;;18.20;5.93;;;7.50;99.90;;;;;;5100451;28;20043;-65
2023/12/09 10:56:52;;;;;;;12.13;5.22;;;7.50;99.90;;;;;;5104472;27;20080;-66
2023/12/09 10:59:18;;;;;;;14.60;5.75;;;7.40;99.90;;;;;;5123227;27;20119;-66
2023/12/09 11:01:47;;;;;;;12.93;4.90;;;7.50;99.90;;;;;;5120201;27;20111;-66
2023/12/09 11:04:14;;;;;;;12.48;5.53;;;7.50;99.90;;;;;;5103743;27;20506;-65
2023/12/09 11:06:44;;;;;;;11.30;5.35;;;7.50;99.90;;;;;;5122092;27;20076;-66
2023/12/09 11:09:16;;;;;;;9.65;5.35;;;7.50;99.90;;;;;;5122997;27;20043;-66
2023/12/09 11:11:42;;;;;;;17.67;5.38;;;7.50;99.90;;;;;;5121715;27;20066;-67
2023/12/09 11:14:11;;;;;;;12.40;5.65;;;7.50;99.90;;;;;;5122123;27;20989;-67
2023/12/09 11:16:44;;;;;;;13.35;4.88;;;7.50;99.90;;;;;;5123312;27;20043;-67
2023/12/09 11:19:17;;;;;;;9.13;4.88;;;7.50;99.90;;;;;;5123135;27;20043;-67
2023/12/09 11:21:46;;;;;;;12.50;4.57;;;7.50;99.90;;;;;;5122328;27;20047;-67
2023/12/09 11:24:13;;;;;;;14.52;5.05;;;7.50;99.90;;;;;;5122503;27;20130;-67
2023/12/09 11:26:41;;;;;;;17.00;4.60;;;7.50;99.90;;;;;;5096479;27;20075;-67
2023/12/09 11:29:08;;;;;;;13.05;4.63;;;7.50;99.90;;;;;;5102390;27;20042;-67
2023/12/09 11:31:38;;;;;;;18.10;4.95;;;7.50;99.90;;;;;;5120680;27;20050;-67
2023/12/09 11:34:15;;;;;;;11.02;4.47;;;7.50;99.90;;;;;;5120869;27;20196;-67
2023/12/09 11:36:42;;;;;;;10.45;4.82;;;7.60;99.90;;;;;;5120805;27;20046;-67
2023/12/09 11:39:12;;;;;;;9.50;4.43;;;7.50;99.90;;;;;;5121945;27;20118;-66
2023/12/09 11:41:39;;;;;;;8.73;4.05;;;7.60;99.90;;;;;;5118883;27;20098;-66
2023/12/09 11:44:05;;;;;;;8.48;4.25;;;7.60;99.90;;;;;;5120904;27;20039;-66
2023/12/09 11:46:32;;;;;;;9.55;3.95;;;7.50;99.90;;;;;;5101573;27;20321;-66
2023/12/09 11:48:59;;;;;;;9.13;3.75;;;7.60;99.90;;;;;;5121651;27;20824;-66
2023/12/09 11:51:27;;;;;;;10.27;4.55;;;7.50;99.90;;;;;;5121453;27;20231;-66
2023/12/09 11:54:00;;;;;;;10.88;4.00;;;7.50;99.90;;;;;;5094364;27;20123;-67
2023/12/09 11:56:27;;;;;;;9.35;4.38;;;7.60;99.90;;;;;;5121042;27;20499;-66
2023/12/09 11:58:53;;;;;;;11.45;4.45;;;7.60;99.90;;;;;;5102652;27;20055;-66
2023/12/09 12:01:20;;;;;;;13.05;4.22;;;7.60;99.90;;;;;;5103532;27;20405;-66
2023/12/09 12:03:49;;;;;;;8.32;3.67;;;7.60;99.90;;;;;;5115099;27;20372;-66
2023/12/09 12:06:17;;;;;;;12.95;4.63;;;7.60;99.90;;;;;;5122336;27;20042;-67
2023/12/09 12:08:47;;;;;;;11.27;4.30;;;7.50;99.90;;;;;;5117315;27;20058;-66
2023/12/09 12:11:17;;;;;;;11.30;4.70;;;7.50;99.90;;;;;;5119123;27;20486;-67
2023/12/09 12:13:43;;;;;;;9.88;4.10;;;7.60;99.90;;;;;;5117398;27;20411;-66
2023/12/09 12:16:10;;;;;;;9.30;3.85;;;7.60;99.90;;;;;;5120611;27;20054;-66
2023/12/09 12:18:36;;;;;;;13.35;4.15;;;7.60;99.90;;;;;;5120299;27;20636;-67
2023/12/09 12:21:07;;;;;;;9.68;4.53;;;7.60;99.90;;;;;;5119173;27;20472;-67
2023/12/09 12:23:34;;;;;;;9.60;3.33;;;7.60;99.90;;;;;;5118182;27;20287;-67
2023/12/09 12:26:00;;;;;;;11.00;3.75;;;7.60;99.90;;;;;;5112948;27;20047;-67
2023/12/09 12:28:26;;;;;;;13.00;3.15;;;7.60;99.90;;;;;;5134394;27;20023;-65
2023/12/09 12:31:03;;;;;;;13.13;4.07;;;7.60;99.90;;;;;;5119863;27;20091;-66
2023/12/09 12:33:32;;;;;;;12.75;3.65;;;7.60;99.90;;;;;;5101140;28;20559;-66
2023/12/09 12:35:59;;;;;;;8.90;3.88;;;7.60;99.90;;;;;;5119525;28;20057;-66
2023/12/09 12:38:26;;;;;;;10.73;3.35;;;7.60;99.90;;;;;;5119993;27;20043;-66